Terminal Aerodrome Forecast
Issued by NWS Portland, OR

Home | Current Version | Previous Version | Text Only | Print | Product List | Glossary On
Versions: 1 2 3 4 5 6 7 8 9 10 11 12 13 14 15 16 17 18 19 20 21 22 23 24 25 26 27 28 29 30 31 32 33 34 35 36 37 38
931
FTUS46 KPQR 151143
TAFEUG
TAF
KEUG 151143Z 1512/1612 18008KT P6SM FEW045 SCT250
     FM151500 18008KT P6SM -RA OVC050
     FM151800 17011KT 5SM RA BR BKN022 OVC035
     FM152300 16006KT P6SM -SHRA SCT025 BKN035 OVC070
     FM160400 20005KT P6SM VCSH BKN035 BKN050=

USA.gov is the U.S. government's official web portal to all federal, state and local government web resources and services.